TJBQ/BQN METAR and TAF weather

Enter ICAO airport designator
Station Type Date Time Source
TJBQ METAR 2019/06/17 00:50 UTC NOAA

TJBQ 170050Z 11011G17KT 10SM CLR 27/25 A3008


Station Type Date Time Source
TJBQ Decoded METAR 2019/06/17 00:50 UTC NOAA

Aquadilla, Rafael Hernandez Airport, PR, United States (TJBQ) 18-30N 067-08W 69M
Jun 16, 2019 - 08:50 PM EDT / 2019.06.17 0050 UTC
Wind: from the ESE (110 degrees) at 13 MPH (11 KT) gusting to 20 MPH (17 KT):0
Visibility: 10 mile(s):0
Sky conditions: clear
Temperature: 80 F (27 C)
Dew Point: 77 F (25 C)
Relative Humidity: 88%
Pressure (altimeter): 30.08 in. Hg (1018 hPa)
ob: TJBQ 170050Z 11011G17KT 10SM CLR 27/25 A3008
cycle: 1

Station Type Date Time Source
TJBQ TAF 2019/06/17 06:30 UTC NOAA

TAF TJBQ 170525Z 1706/1806 11010KT P6SM FEW040
FM171300 08014G22KT P6SM SCT025
FM171600 09018G28KT P6SM VCSH SCT030 SCT050
FM172200 09012G20KT 6SM HZ SCT025
AMD NOT SKED TIL 171100

Example: see airport list